createdAt,value
2022-09-28T00:01:59.739Z,2.05
2022-09-28T00:04:26.490Z,2.17
2022-09-28T00:06:53.158Z,2.40
2022-09-28T00:09:20.345Z,1.90
2022-09-28T00:11:47.393Z,1.80
2022-09-28T00:14:14.333Z,1.80
2022-09-28T00:16:43.879Z,2.30
2022-09-28T00:19:11.981Z,1.90
2022-09-28T00:21:39.986Z,1.70
2022-09-28T00:24:17.446Z,2.00
2022-09-28T00:26:52.626Z,1.70
2022-09-28T00:29:36.330Z,1.77
2022-09-28T00:32:09.472Z,1.85
2022-09-28T00:37:05.845Z,2.10
2022-09-28T00:39:32.565Z,2.00
2022-09-28T00:41:59.663Z,1.95
2022-09-28T00:44:26.451Z,2.05
2022-09-28T00:47:10.147Z,1.88
2022-09-28T00:49:40.310Z,1.90
2022-09-28T00:52:08.273Z,1.77
2022-09-28T00:54:34.922Z,1.80
2022-09-28T00:57:01.817Z,1.95
2022-09-28T00:59:29.223Z,1.95
2022-09-28T01:01:56.061Z,1.73
2022-09-28T01:04:25.909Z,1.90
2022-09-28T01:06:55.065Z,1.50
2022-09-28T01:09:22.091Z,1.60
2022-09-28T01:11:48.801Z,1.80
2022-09-28T01:14:16.156Z,1.40
2022-09-28T01:16:58.537Z,1.60
2022-09-28T01:20:11.216Z,1.60
2022-09-28T01:22:56.952Z,1.90
2022-09-28T01:25:39.129Z,1.83
2022-09-28T01:28:15.339Z,2.05
2022-09-28T01:31:07.684Z,1.83
2022-09-28T01:33:39.026Z,1.65
2022-09-28T01:36:26.957Z,1.85
2022-09-28T01:39:04.793Z,1.80
2022-09-28T01:41:32.666Z,2.20
2022-09-28T01:44:02.820Z,2.22
2022-09-28T01:46:44.728Z,1.80
2022-09-28T01:49:35.911Z,1.50
2022-09-28T01:52:18.234Z,1.80
2022-09-28T01:54:50.378Z,1.55
2022-09-28T01:57:28.390Z,1.67
2022-09-28T02:00:08.580Z,2.00
2022-09-28T02:03:11.068Z,1.90
2022-09-28T02:05:51.660Z,1.80
2022-09-28T02:08:25.714Z,2.33
2022-09-28T02:11:02.209Z,1.70
2022-09-28T02:13:41.638Z,1.83
2022-09-28T02:16:21.278Z,2.25
2022-09-28T02:18:49.825Z,1.77
2022-09-28T02:21:28.341Z,1.75
2022-09-28T02:24:03.493Z,1.80
2022-09-28T02:26:34.737Z,1.60
2022-09-28T02:29:01.483Z,1.67
2022-09-28T02:31:28.730Z,1.40
2022-09-28T02:33:57.418Z,1.42
2022-09-28T02:36:25.694Z,1.27
2022-09-28T02:38:53.097Z,1.50
2022-09-28T02:41:46.179Z,1.50
2022-09-28T02:44:58.839Z,1.40
2022-09-28T02:48:03.424Z,1.75
2022-09-28T02:50:46.975Z,1.42
2022-09-28T02:53:32.352Z,1.52
2022-09-28T02:56:12.902Z,1.90
2022-09-28T02:59:24.706Z,1.67
2022-09-28T03:02:10.236Z,1.15
2022-09-28T03:04:47.260Z,1.40
2022-09-28T03:07:28.640Z,1.60
2022-09-28T03:10:04.326Z,1.25
2022-09-28T03:12:31.487Z,1.40
2022-09-28T03:15:20.662Z,2.17
2022-09-28T03:17:47.581Z,6.80
2022-09-28T03:20:15.211Z,5.68
2022-09-28T03:22:42.033Z,4.22
2022-09-28T03:25:08.935Z,4.18
2022-09-28T03:27:38.237Z,2.30
2022-09-28T03:30:06.707Z,4.30
2022-09-28T03:32:37.247Z,3.70
2022-09-28T03:35:04.626Z,3.97
2022-09-28T03:37:31.273Z,3.35
2022-09-28T03:39:58.111Z,2.80
2022-09-28T03:42:24.801Z,2.58
2022-09-28T03:44:51.682Z,2.28
2022-09-28T03:47:19.293Z,3.97
2022-09-28T03:49:46.246Z,3.80
2022-09-28T03:52:13.797Z,4.15
2022-09-28T03:54:40.872Z,4.00
2022-09-28T03:57:07.707Z,2.90
2022-09-28T03:59:37.375Z,3.47
2022-09-28T04:02:05.434Z,4.68
2022-09-28T04:04:32.289Z,3.55
2022-09-28T04:06:59.525Z,2.92
2022-09-28T04:09:26.512Z,1.77
2022-09-28T04:12:03.980Z,2.10
2022-09-28T04:14:32.106Z,2.70
2022-09-28T04:16:58.843Z,2.40
2022-09-28T04:19:27.561Z,2.10
2022-09-28T04:22:14.612Z,2.40
2022-09-28T04:24:43.415Z,2.40
2022-09-28T04:27:28.739Z,2.70
2022-09-28T04:29:55.527Z,2.72
2022-09-28T04:32:22.309Z,2.70
2022-09-28T04:34:52.016Z,3.25
2022-09-28T04:37:18.932Z,4.32
2022-09-28T04:39:48.374Z,5.20
2022-09-28T04:42:17.791Z,8.38
2022-09-28T04:44:44.860Z,4.35
2022-09-28T04:47:12.402Z,3.85
2022-09-28T04:49:57.809Z,3.40
2022-09-28T04:52:36.803Z,2.92
2022-09-28T04:55:05.573Z,3.28
2022-09-28T04:57:36.604Z,2.90
2022-09-28T05:00:04.084Z,3.00
2022-09-28T05:02:33.125Z,3.28
2022-09-28T05:05:20.332Z,2.60
2022-09-28T05:08:16.747Z,3.30
2022-09-28T05:10:43.482Z,3.42
2022-09-28T05:13:11.809Z,3.22
2022-09-28T05:15:40.071Z,3.58
2022-09-28T05:18:07.009Z,2.78
2022-09-28T05:20:42.070Z,3.00
2022-09-28T05:23:13.113Z,3.00
2022-09-28T05:25:42.177Z,3.22
2022-09-28T05:28:25.132Z,3.33
2022-09-28T05:31:10.193Z,2.75
2022-09-28T05:33:55.511Z,4.55
2022-09-28T05:36:26.628Z,2.97
2022-09-28T05:38:53.564Z,3.75
2022-09-28T05:41:20.270Z,3.20
2022-09-28T05:43:46.964Z,3.03
2022-09-28T05:46:14.486Z,3.83
2022-09-28T05:48:41.685Z,4.10
2022-09-28T05:51:10.110Z,3.70
2022-09-28T05:53:36.824Z,3.40
2022-09-28T05:56:04.370Z,3.22
2022-09-28T05:58:33.673Z,3.85
2022-09-28T06:01:00.419Z,3.72
2022-09-28T06:03:28.407Z,4.13
2022-09-28T06:05:55.158Z,3.40
2022-09-28T06:08:21.860Z,3.35
2022-09-28T06:11:00.237Z,3.47
2022-09-28T06:13:27.782Z,3.53
2022-09-28T06:15:54.866Z,3.72
2022-09-28T06:18:21.570Z,3.30
2022-09-28T06:21:14.600Z,3.30
2022-09-28T06:23:49.044Z,3.50
2022-09-28T06:26:17.441Z,3.50
2022-09-28T06:28:44.968Z,3.75
2022-09-28T06:31:12.006Z,3.30
2022-09-28T06:33:46.384Z,3.58
2022-09-28T06:36:13.632Z,4.13
2022-09-28T06:38:40.446Z,3.92
2022-09-28T06:41:07.272Z,3.80
2022-09-28T06:43:35.040Z,4.00
2022-09-28T06:46:20.886Z,4.18
2022-09-28T06:48:47.610Z,4.57
2022-09-28T06:51:19.030Z,4.10
2022-09-28T06:53:57.294Z,3.35
2022-09-28T06:56:49.720Z,4.55
2022-09-28T06:59:18.497Z,4.53
2022-09-28T07:01:45.207Z,4.38
2022-09-28T07:04:46.930Z,5.85
2022-09-28T07:07:33.012Z,4.18
2022-09-28T07:10:17.157Z,4.50
2022-09-28T07:13:02.683Z,4.43
2022-09-28T07:15:34.518Z,4.85
2022-09-28T07:18:03.938Z,4.40
2022-09-28T07:20:39.255Z,4.35
2022-09-28T07:23:18.933Z,3.72
2022-09-28T07:26:08.637Z,5.10
2022-09-28T07:28:56.842Z,4.45
2022-09-28T07:31:34.554Z,4.47
2022-09-28T07:34:23.027Z,5.35
2022-09-28T07:37:12.391Z,5.15
2022-09-28T07:39:58.329Z,4.63
2022-09-28T07:42:26.205Z,4.20
2022-09-28T07:44:54.305Z,4.22
2022-09-28T07:47:30.834Z,4.60
2022-09-28T07:50:17.991Z,4.40
2022-09-28T07:53:00.501Z,4.18
2022-09-28T07:56:05.605Z,4.65
2022-09-28T07:58:54.918Z,4.10
2022-09-28T08:01:42.296Z,4.05
2022-09-28T08:04:11.607Z,5.07
2022-09-28T08:06:40.641Z,5.28
2022-09-28T08:09:09.249Z,4.60
2022-09-28T08:11:54.816Z,4.53
2022-09-28T08:14:56.836Z,4.10
2022-09-28T08:17:38.369Z,3.80
2022-09-28T08:20:26.750Z,4.30
2022-09-28T08:22:53.459Z,3.85
2022-09-28T08:25:20.968Z,4.30
2022-09-28T08:27:47.916Z,4.18
2022-09-28T08:30:15.245Z,3.83
2022-09-28T08:33:15.574Z,3.83
2022-09-28T08:35:42.296Z,4.05
2022-09-28T08:38:22.703Z,3.92
2022-09-28T08:41:34.792Z,4.00
2022-09-28T08:44:25.031Z,3.00
2022-09-28T08:47:41.322Z,3.30
2022-09-28T08:50:29.566Z,3.42
2022-09-28T08:53:31.984Z,2.80
2022-09-28T08:56:29.779Z,2.63
2022-09-28T08:59:04.566Z,2.70
2022-09-28T09:01:37.150Z,2.63
2022-09-28T09:04:07.509Z,2.90
2022-09-28T09:07:15.485Z,2.80
2022-09-28T09:10:21.640Z,3.75
2022-09-28T09:13:13.373Z,3.28
2022-09-28T09:16:07.656Z,3.67
2022-09-28T09:19:28.568Z,2.85
2022-09-28T09:22:15.473Z,2.83
2022-09-28T09:24:51.353Z,3.28
2022-09-28T09:27:46.505Z,3.03
2022-09-28T09:30:20.528Z,3.05
2022-09-28T09:33:41.698Z,3.53
2022-09-28T09:36:38.568Z,3.00
2022-09-28T09:39:38.745Z,3.10
2022-09-28T09:42:30.933Z,2.97
2022-09-28T09:45:23.697Z,3.50
2022-09-28T09:48:25.105Z,3.50
2022-09-28T09:51:02.828Z,3.38
2022-09-28T09:53:38.478Z,2.70
2022-09-28T09:56:22.094Z,2.75
2022-09-28T09:59:06.652Z,3.13
2022-09-28T10:01:40.069Z,3.00
2022-09-28T10:04:26.074Z,2.58
2022-09-28T10:07:02.782Z,3.08
2022-09-28T10:09:34.954Z,3.00
2022-09-28T10:12:20.648Z,2.30
2022-09-28T10:14:47.577Z,2.80
2022-09-28T10:17:18.144Z,2.35
2022-09-28T10:20:04.163Z,3.03
2022-09-28T10:22:47.105Z,3.60
2022-09-28T10:25:17.828Z,2.72
2022-09-28T10:27:46.206Z,5.43
2022-09-28T10:30:18.325Z,2.47
2022-09-28T10:32:47.773Z,2.17
2022-09-28T10:35:25.754Z,2.38
2022-09-28T10:38:13.439Z,1.90
2022-09-28T10:40:49.258Z,2.80
2022-09-28T10:43:29.562Z,1.90
2022-09-28T10:46:21.701Z,2.58
2022-09-28T10:49:03.400Z,2.58
2022-09-28T10:51:45.254Z,2.15
2022-09-28T10:54:18.476Z,2.38
2022-09-28T10:56:48.102Z,2.15
2022-09-28T10:59:31.304Z,2.95
2022-09-28T11:02:35.512Z,2.30
2022-09-28T11:05:22.689Z,2.92
2022-09-28T11:07:52.647Z,3.08
2022-09-28T11:10:26.845Z,2.35
2022-09-28T11:12:58.091Z,2.13
2022-09-28T11:15:31.470Z,2.20
2022-09-28T11:18:31.369Z,2.45
2022-09-28T11:21:14.532Z,2.80
2022-09-28T11:24:07.906Z,2.55
2022-09-28T11:26:42.520Z,2.30
2022-09-28T11:29:42.364Z,2.30
2022-09-28T11:32:23.133Z,2.53
2022-09-28T11:35:29.921Z,2.20
2022-09-28T11:38:02.928Z,2.03
2022-09-28T11:41:36.067Z,1.70
2022-09-28T11:44:11.977Z,1.65
2022-09-28T11:47:12.854Z,2.30
2022-09-28T11:49:45.384Z,2.00
2022-09-28T11:52:40.462Z,1.90
2022-09-28T11:55:22.669Z,2.10
2022-09-28T11:58:02.234Z,2.15
2022-09-28T12:00:31.244Z,1.50
2022-09-28T12:03:16.546Z,2.40
2022-09-28T12:05:52.632Z,1.95
2022-09-28T12:08:35.050Z,1.65
2022-09-28T12:11:16.266Z,2.17
2022-09-28T12:14:06.672Z,2.15
2022-09-28T12:19:35.353Z,1.95
2022-09-28T12:22:12.244Z,2.35
2022-09-28T12:24:51.189Z,2.13
2022-09-28T12:27:25.015Z,2.20
2022-09-28T12:30:04.058Z,2.40
2022-09-28T12:32:35.564Z,2.33
2022-09-28T12:35:02.746Z,2.65
2022-09-28T12:38:09.179Z,2.47
2022-09-28T12:40:39.931Z,2.15
2022-09-28T12:43:19.954Z,2.75
2022-09-28T12:46:16.904Z,2.42
2022-09-28T12:51:59.914Z,2.30
2022-09-28T12:54:44.871Z,2.47
2022-09-28T12:57:39.285Z,1.85
2022-09-28T13:00:13.837Z,2.30
2022-09-28T13:03:02.148Z,2.20
2022-09-28T13:05:58.077Z,1.98
2022-09-28T13:08:44.187Z,2.22
2022-09-28T13:11:35.178Z,2.40
2022-09-28T13:14:30.274Z,2.42
2022-09-28T13:17:25.697Z,2.65
2022-09-28T13:20:04.058Z,2.58
2022-09-28T13:23:02.310Z,2.50
2022-09-28T13:25:31.130Z,3.05
2022-09-28T13:28:02.893Z,3.00
2022-09-28T13:30:30.531Z,2.67
2022-09-28T13:32:58.234Z,2.67
2022-09-28T13:35:24.961Z,2.70
2022-09-28T13:38:17.296Z,2.38
2022-09-28T13:41:06.103Z,2.47
2022-09-28T13:43:45.270Z,2.10
2022-09-28T13:46:39.710Z,2.40
2022-09-28T13:49:21.500Z,2.13
2022-09-28T13:52:03.112Z,2.35
2022-09-28T13:54:55.881Z,2.05
2022-09-28T13:57:43.777Z,2.22
2022-09-28T14:00:29.393Z,2.10
2022-09-28T14:03:01.290Z,1.73
2022-09-28T14:05:49.157Z,2.05
2022-09-28T14:08:29.514Z,1.75
2022-09-28T14:10:57.824Z,1.80
2022-09-28T14:13:42.702Z,1.50
2022-09-28T14:16:18.341Z,1.50
2022-09-28T14:18:52.741Z,2.35
2022-09-28T14:21:47.994Z,2.45
2022-09-28T14:25:06.378Z,2.50
2022-09-28T14:28:03.099Z,1.90
2022-09-28T14:30:41.868Z,4.40
2022-09-28T14:33:20.492Z,1.80
2022-09-28T14:36:10.033Z,1.58
2022-09-28T14:39:06.402Z,1.95
2022-09-28T14:41:38.259Z,1.70
2022-09-28T14:44:12.098Z,2.40
2022-09-28T14:46:40.423Z,2.20
2022-09-28T14:49:23.302Z,2.03
2022-09-28T14:51:52.834Z,2.00
2022-09-28T14:54:21.255Z,2.28
2022-09-28T14:56:54.162Z,2.40
2022-09-28T14:59:36.064Z,2.80
2022-09-28T15:02:12.350Z,2.38
2022-09-28T15:04:49.432Z,2.25
2022-09-28T15:07:21.586Z,1.70
2022-09-28T15:09:50.322Z,2.20
2022-09-28T15:12:20.031Z,2.30
2022-09-28T15:14:59.335Z,2.88
2022-09-28T15:17:34.627Z,2.10
2022-09-28T15:20:21.977Z,2.30
2022-09-28T15:22:50.026Z,2.70
2022-09-28T15:25:19.879Z,2.70
2022-09-28T15:27:52.433Z,2.20
2022-09-28T15:30:24.103Z,1.95
2022-09-28T15:32:56.614Z,2.28
2022-09-28T15:35:27.569Z,2.35
2022-09-28T15:37:54.921Z,2.30
2022-09-28T15:40:33.455Z,3.20
2022-09-28T15:43:00.111Z,3.60
2022-09-28T15:45:37.279Z,3.88
2022-09-28T15:49:02.545Z,3.70
2022-09-28T15:51:29.783Z,4.22
2022-09-28T15:54:19.256Z,4.75
2022-09-28T15:56:54.904Z,4.20
2022-09-28T15:59:38.046Z,4.05
2022-09-28T16:02:17.706Z,4.35
2022-09-28T16:04:55.696Z,3.85
2022-09-28T16:07:36.923Z,3.92
2022-09-28T16:10:12.702Z,5.10
2022-09-28T16:12:55.031Z,6.82
2022-09-28T16:15:27.952Z,7.33
2022-09-28T16:18:03.214Z,8.52
2022-09-28T16:20:37.769Z,6.32
2022-09-28T16:23:16.533Z,4.63
2022-09-28T16:26:04.542Z,4.88
2022-09-28T16:28:48.946Z,4.10
2022-09-28T16:31:16.236Z,4.35
2022-09-28T16:33:58.168Z,4.10
2022-09-28T16:36:30.223Z,3.92
2022-09-28T16:38:57.308Z,3.88
2022-09-28T16:41:26.575Z,4.25
2022-09-28T16:43:59.011Z,4.72
2022-09-28T16:46:31.300Z,4.30
2022-09-28T16:48:59.765Z,4.13
2022-09-28T16:51:26.442Z,4.20
2022-09-28T16:54:11.669Z,4.05
2022-09-28T16:56:38.312Z,3.92
2022-09-28T16:59:04.996Z,3.72
2022-09-28T17:01:31.958Z,4.13
2022-09-28T17:03:58.957Z,3.75
2022-09-28T17:06:26.457Z,4.05
2022-09-28T17:08:56.576Z,4.13
2022-09-28T17:11:24.900Z,5.32
2022-09-28T17:13:52.016Z,5.07
2022-09-28T17:16:32.502Z,4.57
2022-09-28T17:19:05.476Z,3.47
2022-09-28T17:21:32.188Z,4.57
2022-09-28T17:23:58.882Z,3.50
2022-09-28T17:26:30.241Z,3.45
2022-09-28T17:29:01.707Z,3.95
2022-09-28T17:31:29.683Z,3.65
2022-09-28T17:33:56.540Z,4.35
2022-09-28T17:36:23.628Z,3.85
2022-09-28T17:38:51.758Z,4.35
2022-09-28T17:41:20.933Z,4.93
2022-09-28T17:43:48.600Z,4.55
2022-09-28T17:46:28.383Z,4.85
2022-09-28T17:48:59.388Z,4.57
2022-09-28T17:51:27.634Z,5.47
2022-09-28T17:53:56.165Z,6.10
2022-09-28T17:56:27.407Z,6.95
2022-09-28T17:58:57.521Z,5.43
2022-09-28T18:01:24.217Z,3.72
2022-09-28T18:03:51.134Z,3.85
2022-09-28T18:06:22.908Z,3.75
2022-09-28T18:08:49.767Z,4.63
2022-09-28T18:11:17.515Z,5.05
2022-09-28T18:13:46.134Z,5.00
2022-09-28T18:16:13.822Z,5.28
2022-09-28T18:18:41.670Z,5.35
2022-09-28T18:21:09.320Z,5.15
2022-09-28T18:23:37.027Z,4.53
2022-09-28T18:26:04.678Z,5.10
2022-09-28T18:28:31.385Z,5.45
2022-09-28T18:30:58.143Z,5.10
2022-09-28T18:33:24.822Z,5.68
2022-09-28T18:35:55.121Z,5.30
2022-09-28T18:38:21.806Z,5.72
2022-09-28T18:40:48.839Z,4.45
2022-09-28T18:43:15.810Z,4.80
2022-09-28T18:45:42.549Z,4.95
2022-09-28T18:48:09.463Z,4.95
2022-09-28T18:50:36.306Z,6.30
2022-09-28T18:53:12.457Z,4.20
2022-09-28T18:55:40.297Z,3.88
2022-09-28T18:58:11.606Z,4.90
2022-09-28T19:00:42.588Z,4.47
2022-09-28T19:03:11.216Z,5.43
2022-09-28T19:05:42.529Z,6.65
2022-09-28T19:08:10.029Z,6.07
2022-09-28T19:10:37.074Z,7.13
2022-09-28T19:13:04.176Z,7.00
2022-09-28T19:15:32.258Z,6.20
2022-09-28T19:17:59.027Z,5.97
2022-09-28T19:20:25.703Z,6.97
2022-09-28T19:22:52.444Z,8.43
2022-09-28T19:25:19.146Z,8.68
2022-09-28T19:27:47.755Z,10.23
2022-09-28T19:30:14.543Z,11.32
2022-09-28T19:32:42.390Z,11.02
2022-09-28T19:35:09.875Z,11.68
2022-09-28T19:37:37.562Z,11.13
2022-09-28T19:40:06.543Z,8.70
2022-09-28T19:42:35.243Z,9.48
2022-09-28T19:45:02.322Z,9.02
2022-09-28T19:47:29.111Z,8.32
2022-09-28T19:49:55.896Z,9.55
2022-09-28T19:52:22.613Z,8.93
2022-09-28T19:54:57.402Z,9.95
2022-09-28T19:57:27.547Z,10.32
2022-09-28T19:59:59.301Z,9.27
2022-09-28T20:02:33.584Z,9.35
2022-09-28T20:05:00.362Z,10.32
2022-09-28T20:07:27.117Z,9.82
2022-09-28T20:09:54.022Z,9.93
2022-09-28T20:12:20.762Z,11.90
2022-09-28T20:14:47.480Z,9.50
2022-09-28T20:17:14.311Z,10.57
2022-09-28T20:19:41.122Z,10.68
2022-09-28T20:22:07.770Z,11.50
2022-09-28T20:24:34.476Z,11.43
2022-09-28T20:27:01.802Z,11.68
2022-09-28T20:29:31.279Z,12.32
2022-09-28T20:31:58.113Z,11.70
2022-09-28T20:34:24.766Z,11.30
2022-09-28T20:36:51.409Z,12.13
2022-09-28T20:39:18.238Z,11.65
2022-09-28T20:41:46.543Z,10.63
2022-09-28T20:44:13.337Z,11.73
2022-09-28T20:46:40.149Z,10.60
2022-09-28T20:49:07.776Z,9.30
2022-09-28T20:51:34.881Z,9.23
2022-09-28T20:54:01.760Z,7.47
2022-09-28T20:56:31.347Z,8.35
2022-09-28T20:58:58.136Z,9.35
2022-09-28T21:01:27.037Z,10.23
2022-09-28T21:03:55.720Z,9.70
2022-09-28T21:06:30.575Z,9.15
2022-09-28T21:08:57.488Z,9.20
2022-09-28T21:11:25.983Z,7.25
2022-09-28T21:13:58.190Z,5.90
2022-09-28T21:16:26.031Z,5.13
2022-09-28T21:18:53.008Z,4.78
2022-09-28T21:21:21.006Z,6.00
2022-09-28T21:23:47.893Z,6.68
2022-09-28T21:26:25.089Z,8.20
2022-09-28T21:28:56.771Z,9.82
2022-09-28T21:31:28.881Z,8.60
2022-09-28T21:33:56.810Z,7.97
2022-09-28T21:36:23.691Z,7.78
2022-09-28T21:38:50.346Z,7.13
2022-09-28T21:41:17.234Z,8.45
2022-09-28T21:43:44.095Z,9.20
2022-09-28T21:46:11.287Z,8.23
2022-09-28T21:48:38.015Z,8.85
2022-09-28T21:51:06.839Z,8.02
2022-09-28T21:53:36.144Z,8.88
2022-09-28T21:56:04.308Z,9.52
2022-09-28T21:58:33.232Z,9.95
2022-09-28T22:01:06.984Z,9.35
2022-09-28T22:03:35.613Z,10.10
2022-09-28T22:06:05.928Z,9.18
2022-09-28T22:08:33.255Z,9.52
2022-09-28T22:11:02.816Z,8.85
2022-09-28T22:13:30.513Z,10.00
2022-09-28T22:16:00.546Z,10.35
2022-09-28T22:18:28.737Z,9.27
2022-09-28T22:21:04.050Z,10.07
2022-09-28T22:23:30.762Z,10.30
2022-09-28T22:26:01.560Z,10.35
2022-09-28T22:28:28.401Z,10.40
2022-09-28T22:30:55.934Z,9.50
2022-09-28T22:33:23.215Z,9.77
2022-09-28T22:35:51.352Z,10.38
2022-09-28T22:38:18.905Z,10.30
2022-09-28T22:40:55.973Z,10.35
2022-09-28T22:43:24.238Z,9.95
2022-09-28T22:46:00.211Z,9.70
2022-09-28T22:48:27.014Z,9.30
2022-09-28T22:50:53.745Z,8.95
2022-09-28T22:53:20.434Z,8.82
2022-09-28T22:55:47.093Z,9.50
2022-09-28T22:58:14.021Z,8.77
2022-09-28T23:00:40.932Z,8.80
2022-09-28T23:03:07.646Z,9.30
2022-09-28T23:05:34.430Z,8.88
2022-09-28T23:08:01.377Z,9.38
2022-09-28T23:10:28.110Z,9.65
2022-09-28T23:12:54.957Z,9.00
2022-09-28T23:15:22.344Z,9.80
2022-09-28T23:17:52.897Z,9.60
2022-09-28T23:20:23.590Z,9.23
2022-09-28T23:22:50.742Z,9.57
2022-09-28T23:25:18.382Z,8.68
2022-09-28T23:27:49.584Z,9.23
2022-09-28T23:30:18.687Z,8.27
2022-09-28T23:32:45.674Z,8.60
2022-09-28T23:35:13.174Z,8.15
2022-09-28T23:37:40.045Z,8.85
2022-09-28T23:40:07.365Z,7.85
2022-09-28T23:42:35.378Z,7.40
2022-09-28T23:45:02.072Z,7.90
2022-09-28T23:47:29.828Z,7.47
2022-09-28T23:49:56.445Z,8.00
2022-09-28T23:52:23.207Z,8.35
2022-09-28T23:54:49.870Z,7.55
2022-09-28T23:57:16.514Z,8.18
2022-09-28T23:59:43.345Z,7.53
